createdAt,value
2023-02-15T00:02:27.038Z,45.80
2023-02-15T00:04:57.006Z,42.17
2023-02-15T00:07:25.341Z,52.60
2023-02-15T00:09:53.880Z,46.42
2023-02-15T00:12:30.275Z,47.28
2023-02-15T00:15:16.501Z,39.58
2023-02-15T00:18:06.437Z,55.15
2023-02-15T00:20:48.552Z,40.92
2023-02-15T00:23:36.668Z,30.60
2023-02-15T00:26:07.250Z,32.60
2023-02-15T00:28:36.840Z,44.20
2023-02-15T00:31:06.273Z,37.85
2023-02-15T00:33:41.205Z,41.13
2023-02-15T00:36:11.257Z,36.55
2023-02-15T00:38:40.767Z,45.50
2023-02-15T00:41:11.636Z,41.05
2023-02-15T00:43:42.651Z,41.47
2023-02-15T00:46:14.317Z,37.22
2023-02-15T00:48:43.454Z,39.00
2023-02-15T00:51:12.437Z,41.75
2023-02-15T00:53:43.242Z,35.97
2023-02-15T00:56:15.498Z,43.10
2023-02-15T00:58:44.493Z,36.60
2023-02-15T01:01:15.222Z,36.08
2023-02-15T01:03:50.644Z,39.03
2023-02-15T01:06:22.119Z,43.35
2023-02-15T01:08:50.983Z,39.78
2023-02-15T01:11:23.094Z,41.28
2023-02-15T01:13:55.474Z,42.75
2023-02-15T01:16:26.350Z,39.15
2023-02-15T01:19:14.335Z,38.88
2023-02-15T01:21:44.653Z,40.33
2023-02-15T01:24:14.918Z,44.55
2023-02-15T01:26:43.762Z,38.85
2023-02-15T01:29:31.354Z,42.47
2023-02-15T01:32:09.186Z,44.08
2023-02-15T01:34:56.841Z,46.75
2023-02-15T01:37:38.523Z,40.20
2023-02-15T01:40:09.116Z,42.63
2023-02-15T01:42:44.511Z,40.22
2023-02-15T01:45:18.743Z,42.75
2023-02-15T01:48:02.849Z,40.50
2023-02-15T01:50:46.357Z,42.67
2023-02-15T01:53:25.699Z,38.05
2023-02-15T01:56:16.020Z,43.42
2023-02-15T01:58:58.696Z,40.85
2023-02-15T02:01:27.752Z,43.75
2023-02-15T02:04:20.065Z,46.03
2023-02-15T02:07:04.433Z,43.22
2023-02-15T02:09:42.986Z,43.95
2023-02-15T02:12:23.772Z,44.70
2023-02-15T02:15:08.432Z,44.67
2023-02-15T02:17:59.014Z,42.25
2023-02-15T02:20:40.310Z,45.00
2023-02-15T02:23:17.912Z,46.75
2023-02-15T02:25:58.370Z,51.00
2023-02-15T02:28:29.280Z,42.42
2023-02-15T02:31:08.485Z,45.35
2023-02-15T02:33:44.868Z,41.67
2023-02-15T02:36:31.475Z,48.88
2023-02-15T02:39:02.852Z,42.25
2023-02-15T02:41:39.227Z,41.85
2023-02-15T02:44:14.630Z,45.78
2023-02-15T02:46:53.205Z,45.38
2023-02-15T02:49:34.474Z,44.90
2023-02-15T02:52:35.656Z,50.83
2023-02-15T02:55:07.581Z,45.70
2023-02-15T02:57:45.483Z,43.13
2023-02-15T03:00:16.678Z,45.73
2023-02-15T03:03:08.984Z,42.35
2023-02-15T03:05:56.833Z,46.75
2023-02-15T03:08:44.119Z,47.05
2023-02-15T03:11:31.949Z,49.70
2023-02-15T03:14:20.037Z,46.90
2023-02-15T03:17:07.865Z,44.90
2023-02-15T03:19:57.749Z,47.83
2023-02-15T03:22:52.408Z,52.78
2023-02-15T03:25:43.868Z,43.55
2023-02-15T03:28:37.385Z,45.88
2023-02-15T03:31:12.019Z,46.80
2023-02-15T03:33:50.042Z,49.95
2023-02-15T03:36:24.956Z,50.10
2023-02-15T03:39:30.083Z,47.15
2023-02-15T03:42:20.788Z,51.50
2023-02-15T03:45:11.155Z,47.42
2023-02-15T03:48:00.648Z,44.97
2023-02-15T03:50:52.212Z,44.28
2023-02-15T03:53:34.610Z,49.17
2023-02-15T03:59:08.845Z,48.85
2023-02-15T04:01:59.355Z,44.13
2023-02-15T04:04:32.791Z,45.00
2023-02-15T04:07:01.587Z,52.92
2023-02-15T04:09:47.901Z,39.83
2023-02-15T04:12:17.340Z,47.60
2023-02-15T04:15:06.114Z,51.88
2023-02-15T04:17:38.133Z,50.72
2023-02-15T04:20:24.110Z,44.25
2023-02-15T04:23:12.454Z,54.50
2023-02-15T04:25:41.837Z,42.38
2023-02-15T04:28:12.463Z,45.92
2023-02-15T04:30:41.184Z,44.97
2023-02-15T04:33:26.386Z,51.30
2023-02-15T04:35:55.781Z,49.00
2023-02-15T04:38:24.978Z,51.15
2023-02-15T04:40:54.248Z,45.88
2023-02-15T04:43:22.656Z,49.60
2023-02-15T04:45:52.169Z,46.08
2023-02-15T04:48:20.476Z,45.22
2023-02-15T04:50:49.176Z,48.55
2023-02-15T04:53:19.156Z,54.28
2023-02-15T04:55:48.488Z,49.78
2023-02-15T04:58:16.967Z,42.63
2023-02-15T05:00:45.598Z,52.05
2023-02-15T05:03:30.263Z,43.92
2023-02-15T05:05:59.891Z,46.05
2023-02-15T05:08:28.996Z,48.25
2023-02-15T05:10:57.613Z,46.05
2023-02-15T05:13:26.257Z,43.22
2023-02-15T05:15:55.425Z,43.22
2023-02-15T05:18:42.998Z,45.63
2023-02-15T05:21:32.523Z,45.95
2023-02-15T05:24:37.781Z,46.17
2023-02-15T05:27:43.161Z,43.70
2023-02-15T05:30:12.656Z,43.50
2023-02-15T05:32:51.369Z,53.33
2023-02-15T05:35:19.701Z,48.75
2023-02-15T05:37:50.792Z,47.67
2023-02-15T05:40:21.471Z,43.35
2023-02-15T05:42:49.857Z,46.53
2023-02-15T05:45:18.266Z,49.30
2023-02-15T05:47:49.905Z,44.55
2023-02-15T05:50:18.454Z,46.13
2023-02-15T05:53:07.919Z,50.88
2023-02-15T05:55:46.905Z,45.50
2023-02-15T05:58:35.804Z,46.00
2023-02-15T06:01:25.617Z,45.53
2023-02-15T06:03:56.639Z,48.05
2023-02-15T06:06:44.239Z,41.70
2023-02-15T06:09:27.130Z,50.70
2023-02-15T06:12:15.072Z,46.22
2023-02-15T06:14:51.835Z,46.65
2023-02-15T06:17:20.404Z,43.22
2023-02-15T06:19:51.524Z,46.35
2023-02-15T06:25:10.786Z,49.30
2023-02-15T06:27:46.639Z,50.75
2023-02-15T06:30:24.823Z,48.13
2023-02-15T06:33:12.539Z,46.60
2023-02-15T06:35:44.078Z,50.08
2023-02-15T06:38:31.856Z,46.95
2023-02-15T06:41:21.950Z,48.90
2023-02-15T06:44:12.088Z,38.78
2023-02-15T06:46:59.676Z,51.08
2023-02-15T06:49:49.697Z,49.55
2023-02-15T06:52:37.268Z,47.47
2023-02-15T06:55:13.335Z,49.03
2023-02-15T06:58:00.984Z,44.15
2023-02-15T07:00:50.324Z,51.25
2023-02-15T07:03:37.970Z,42.40
2023-02-15T07:06:25.674Z,42.35
2023-02-15T07:08:54.621Z,46.55
2023-02-15T07:11:40.846Z,47.78
2023-02-15T07:14:09.580Z,43.40
2023-02-15T07:16:38.089Z,51.90
2023-02-15T07:19:09.172Z,45.35
2023-02-15T07:21:42.833Z,52.85
2023-02-15T07:24:13.788Z,49.30
2023-02-15T07:26:46.698Z,44.30
2023-02-15T07:29:33.806Z,46.63
2023-02-15T07:32:21.469Z,42.40
2023-02-15T07:35:09.350Z,42.63
2023-02-15T07:37:56.930Z,42.63
2023-02-15T07:40:44.820Z,42.17
2023-02-15T07:43:34.521Z,42.95
2023-02-15T07:46:22.555Z,39.60
2023-02-15T07:49:10.233Z,38.58
2023-02-15T07:51:38.892Z,42.70
2023-02-15T07:54:07.773Z,35.60
2023-02-15T07:56:37.500Z,32.75
2023-02-15T07:59:09.177Z,37.45
2023-02-15T08:01:43.366Z,35.85
2023-02-15T08:04:12.102Z,34.83
2023-02-15T08:06:41.254Z,38.95
2023-02-15T08:09:10.477Z,37.75
2023-02-15T08:11:40.994Z,33.80
2023-02-15T08:14:11.156Z,38.58
2023-02-15T08:16:46.056Z,45.28
2023-02-15T08:19:14.295Z,45.33
2023-02-15T08:21:44.079Z,36.58
2023-02-15T08:24:13.485Z,34.28
2023-02-15T08:26:47.736Z,33.65
2023-02-15T08:29:17.364Z,38.33
2023-02-15T08:31:46.317Z,34.53
2023-02-15T08:34:22.404Z,34.42
2023-02-15T08:36:52.936Z,32.92
2023-02-15T08:39:24.763Z,38.35
2023-02-15T08:41:57.663Z,32.45
2023-02-15T08:44:49.439Z,30.10
2023-02-15T08:47:18.707Z,37.33
2023-02-15T08:49:47.132Z,28.08
2023-02-15T08:52:18.119Z,32.25
2023-02-15T08:55:05.862Z,28.38
2023-02-15T08:57:56.482Z,30.15
2023-02-15T09:00:46.554Z,32.90
2023-02-15T09:03:35.161Z,28.23
2023-02-15T09:06:03.817Z,35.03
2023-02-15T09:08:33.975Z,33.28
2023-02-15T09:11:12.900Z,31.67
2023-02-15T09:13:42.831Z,26.27
2023-02-15T09:16:12.358Z,27.15
2023-02-15T09:18:42.062Z,26.98
2023-02-15T09:21:14.749Z,27.35
2023-02-15T09:23:43.943Z,19.55
2023-02-15T09:26:16.664Z,29.85
2023-02-15T09:29:04.845Z,24.40
2023-02-15T09:31:42.217Z,25.48
2023-02-15T09:34:30.730Z,23.70
2023-02-15T09:37:00.254Z,22.85
2023-02-15T09:39:29.000Z,22.83
2023-02-15T09:42:00.697Z,24.38
2023-02-15T09:44:34.589Z,28.33
2023-02-15T09:47:03.188Z,27.23
2023-02-15T09:49:53.806Z,31.25
2023-02-15T09:52:35.973Z,27.33
2023-02-15T09:55:13.222Z,26.92
2023-02-15T09:57:46.339Z,24.17
2023-02-15T10:00:14.636Z,33.65
2023-02-15T10:03:12.929Z,28.03
2023-02-15T10:05:40.979Z,22.63
2023-02-15T10:08:09.034Z,22.35
2023-02-15T10:10:41.254Z,21.30
2023-02-15T10:13:17.577Z,24.00
2023-02-15T10:15:54.653Z,22.40
2023-02-15T10:18:25.797Z,25.27
2023-02-15T10:21:06.721Z,22.05
2023-02-15T10:24:00.748Z,16.77
2023-02-15T10:26:35.869Z,21.67
2023-02-15T10:29:28.826Z,24.30
2023-02-15T10:32:12.394Z,20.67
2023-02-15T10:35:01.823Z,21.92
2023-02-15T10:38:00.732Z,23.00
2023-02-15T10:40:37.065Z,25.42
2023-02-15T10:43:32.689Z,24.13
2023-02-15T10:46:03.667Z,20.38
2023-02-15T10:48:36.277Z,20.25
2023-02-15T10:51:12.956Z,21.00
2023-02-15T10:53:58.166Z,20.38
2023-02-15T10:56:59.038Z,21.70
2023-02-15T10:59:35.540Z,20.42
2023-02-15T11:02:09.998Z,20.73
2023-02-15T11:04:44.186Z,22.65
2023-02-15T11:07:22.282Z,22.38
2023-02-15T11:09:54.319Z,22.83
2023-02-15T11:12:37.929Z,23.10
2023-02-15T11:15:21.862Z,21.88
2023-02-15T11:18:24.729Z,21.48
2023-02-15T11:21:19.764Z,20.13
2023-02-15T11:23:55.325Z,22.27
2023-02-15T11:26:39.581Z,23.80
2023-02-15T11:29:35.756Z,18.50
2023-02-15T11:32:20.125Z,22.13
2023-02-15T11:35:00.559Z,25.30
2023-02-15T11:38:17.498Z,19.48
2023-02-15T11:40:58.418Z,22.42
2023-02-15T11:43:56.324Z,22.33
2023-02-15T11:46:26.986Z,21.65
2023-02-15T11:48:55.866Z,18.23
2023-02-15T11:51:24.879Z,22.20
2023-02-15T11:53:55.619Z,21.52
2023-02-15T11:56:27.669Z,25.98
2023-02-15T11:59:19.046Z,20.70
2023-02-15T12:01:48.288Z,24.52
2023-02-15T12:04:34.745Z,24.60
2023-02-15T12:07:09.902Z,23.52
2023-02-15T12:10:01.660Z,20.02
2023-02-15T12:13:09.190Z,21.70
2023-02-15T12:15:56.482Z,20.73
2023-02-15T12:18:45.623Z,23.35
2023-02-15T12:21:16.058Z,24.50
2023-02-15T12:23:52.614Z,21.88
2023-02-15T12:26:32.424Z,18.48
2023-02-15T12:29:08.670Z,20.27
2023-02-15T12:31:56.655Z,17.25
2023-02-15T12:34:48.235Z,18.92
2023-02-15T12:37:38.457Z,18.92
2023-02-15T12:40:30.930Z,23.17
2023-02-15T12:43:27.341Z,19.65
2023-02-15T12:46:15.334Z,16.42
2023-02-15T12:49:21.727Z,15.55
2023-02-15T12:52:07.690Z,18.77
2023-02-15T12:54:55.311Z,21.52
2023-02-15T12:57:34.895Z,20.83
2023-02-15T13:00:22.738Z,22.23
2023-02-15T13:03:18.787Z,16.30
2023-02-15T13:06:08.342Z,22.08
2023-02-15T13:08:52.259Z,20.95
2023-02-15T13:11:35.980Z,20.95
2023-02-15T13:14:22.817Z,16.50
2023-02-15T13:16:57.709Z,15.98
2023-02-15T13:19:28.880Z,21.13
2023-02-15T13:22:00.211Z,20.80
2023-02-15T13:24:35.509Z,14.52
2023-02-15T13:27:24.700Z,20.13
2023-02-15T13:30:04.580Z,22.42
2023-02-15T13:32:54.618Z,20.52
2023-02-15T13:36:08.734Z,20.00
2023-02-15T13:38:49.219Z,15.25
2023-02-15T13:41:19.704Z,18.50
2023-02-15T13:43:55.559Z,18.42
2023-02-15T13:46:34.359Z,22.45
2023-02-15T13:49:36.327Z,23.67
2023-02-15T13:52:14.401Z,17.52
2023-02-15T13:54:45.489Z,16.20
2023-02-15T13:57:20.038Z,14.70
2023-02-15T13:59:59.838Z,17.58
2023-02-15T14:02:53.324Z,20.40
2023-02-15T14:05:26.940Z,16.60
2023-02-15T14:08:20.082Z,19.73
2023-02-15T14:11:01.732Z,19.50
2023-02-15T14:13:36.242Z,18.88
2023-02-15T14:16:19.319Z,13.73
2023-02-15T14:19:01.293Z,17.85
2023-02-15T14:21:51.688Z,19.10
2023-02-15T14:24:25.056Z,16.02
2023-02-15T14:27:09.307Z,16.52
2023-02-15T14:29:38.683Z,17.70
2023-02-15T14:32:12.574Z,14.52
2023-02-15T14:34:46.626Z,25.30
2023-02-15T14:37:21.530Z,21.85
2023-02-15T14:40:15.246Z,27.67
2023-02-15T14:42:47.351Z,19.52
2023-02-15T14:45:24.933Z,19.60
2023-02-15T14:48:06.412Z,15.43
2023-02-15T14:50:38.251Z,19.02
2023-02-15T14:53:28.779Z,16.25
2023-02-15T14:56:14.466Z,17.23
2023-02-15T14:58:52.569Z,23.15
2023-02-15T15:01:52.311Z,22.25
2023-02-15T15:04:43.823Z,17.55
2023-02-15T15:07:17.970Z,20.15
2023-02-15T15:09:48.395Z,17.70
2023-02-15T15:12:23.129Z,21.33
2023-02-15T15:14:55.767Z,18.85
2023-02-15T15:17:38.736Z,17.90
2023-02-15T15:20:08.913Z,17.40
2023-02-15T15:22:41.139Z,20.23
2023-02-15T15:25:13.752Z,16.90
2023-02-15T15:27:43.969Z,21.38
2023-02-15T15:30:15.260Z,17.02
2023-02-15T15:32:57.066Z,14.80
2023-02-15T15:35:43.989Z,19.13
2023-02-15T15:38:21.006Z,22.35
2023-02-15T15:41:13.115Z,18.20
2023-02-15T15:43:50.552Z,21.35
2023-02-15T15:46:37.680Z,18.45
2023-02-15T15:49:14.303Z,23.17
2023-02-15T15:51:43.369Z,25.33
2023-02-15T15:54:19.121Z,16.73
2023-02-15T15:56:59.110Z,15.00
2023-02-15T15:59:36.116Z,27.05
2023-02-15T16:02:09.420Z,17.23
2023-02-15T16:04:52.145Z,19.35
2023-02-15T16:07:29.051Z,18.77
2023-02-15T16:10:02.577Z,28.75
2023-02-15T16:12:36.252Z,20.30
2023-02-15T16:15:22.067Z,18.75
2023-02-15T16:17:55.916Z,17.02
2023-02-15T16:20:32.451Z,18.67
2023-02-15T16:23:07.880Z,19.10
2023-02-15T16:25:40.115Z,19.30
2023-02-15T16:28:19.495Z,18.08
2023-02-15T16:30:47.935Z,17.40
2023-02-15T16:33:17.358Z,19.92
2023-02-15T16:35:58.677Z,18.95
2023-02-15T16:38:43.730Z,20.98
2023-02-15T16:41:29.008Z,23.10
2023-02-15T16:44:02.244Z,39.00
2023-02-15T16:46:42.399Z,37.22
2023-02-15T16:49:18.104Z,69.43
2023-02-15T16:51:46.926Z,52.50
2023-02-15T16:54:20.853Z,40.08
2023-02-15T16:59:26.453Z,22.13
2023-02-15T17:02:43.020Z,48.63
2023-02-15T17:05:42.677Z,20.48
2023-02-15T17:08:34.908Z,23.05
2023-02-15T17:11:12.382Z,18.95
2023-02-15T17:14:04.361Z,21.75
2023-02-15T17:16:38.128Z,24.15
2023-02-15T17:19:21.209Z,26.98
2023-02-15T17:21:57.130Z,25.15
2023-02-15T17:24:32.587Z,23.25
2023-02-15T17:27:12.362Z,21.38
2023-02-15T17:29:59.371Z,18.98
2023-02-15T17:32:30.367Z,21.95
2023-02-15T17:35:09.477Z,19.17
2023-02-15T17:37:49.092Z,16.85
2023-02-15T17:40:23.958Z,17.92
2023-02-15T17:42:59.190Z,28.30
2023-02-15T17:45:35.654Z,20.15
2023-02-15T17:48:20.684Z,20.90
2023-02-15T17:51:04.685Z,20.17
2023-02-15T17:53:40.909Z,23.85
2023-02-15T17:56:27.524Z,21.58
2023-02-15T17:59:15.256Z,22.13
2023-02-15T18:02:09.251Z,20.17
2023-02-15T18:05:14.506Z,26.70
2023-02-15T18:08:01.374Z,21.13
2023-02-15T18:10:48.843Z,20.92
2023-02-15T18:13:17.735Z,21.33
2023-02-15T18:15:49.284Z,19.25
2023-02-15T18:18:51.103Z,22.00
2023-02-15T18:21:35.621Z,21.02
2023-02-15T18:24:28.000Z,19.10
2023-02-15T18:26:58.480Z,20.73
2023-02-15T18:29:31.117Z,22.95
2023-02-15T18:32:00.813Z,20.02
2023-02-15T18:34:33.425Z,19.65
2023-02-15T18:37:20.593Z,19.30
2023-02-15T18:40:15.341Z,26.38
2023-02-15T18:43:03.011Z,25.00
2023-02-15T18:45:43.273Z,27.15
2023-02-15T18:48:13.359Z,20.83
2023-02-15T18:50:44.306Z,19.73
2023-02-15T18:53:16.714Z,19.83
2023-02-15T18:55:46.494Z,26.42
2023-02-15T18:58:19.163Z,23.95
2023-02-15T19:00:50.788Z,26.17
2023-02-15T19:03:36.458Z,21.15
2023-02-15T19:06:10.584Z,23.85
2023-02-15T19:08:48.354Z,24.45
2023-02-15T19:11:35.975Z,22.15
2023-02-15T19:14:20.675Z,23.33
2023-02-15T19:17:12.277Z,21.63
2023-02-15T19:19:59.386Z,25.33
2023-02-15T19:22:34.062Z,23.50
2023-02-15T19:25:04.365Z,24.10
2023-02-15T19:27:36.256Z,22.60
2023-02-15T19:30:08.795Z,30.38
2023-02-15T19:32:47.261Z,28.00
2023-02-15T19:35:19.853Z,31.95
2023-02-15T19:37:54.472Z,23.55
2023-02-15T19:40:27.573Z,27.87
2023-02-15T19:42:56.694Z,27.13
2023-02-15T19:45:32.665Z,28.63
2023-02-15T19:48:03.482Z,36.38
2023-02-15T19:50:35.837Z,28.08
2023-02-15T19:53:21.374Z,31.55
2023-02-15T19:56:00.942Z,29.65
2023-02-15T19:58:46.373Z,26.23
2023-02-15T20:01:26.215Z,27.52
2023-02-15T20:04:14.239Z,26.25
2023-02-15T20:07:03.876Z,28.40
2023-02-15T20:09:46.757Z,23.88
2023-02-15T20:12:34.412Z,29.65
2023-02-15T20:15:23.942Z,28.40
2023-02-15T20:18:12.025Z,29.35
2023-02-15T20:20:52.643Z,26.98
2023-02-15T20:23:30.728Z,28.60
2023-02-15T20:26:03.400Z,24.33
2023-02-15T20:28:45.232Z,26.02
2023-02-15T20:31:20.773Z,27.67
2023-02-15T20:33:53.358Z,28.23
2023-02-15T20:36:23.071Z,25.10
2023-02-15T20:38:51.637Z,27.02
2023-02-15T20:41:38.323Z,25.42
2023-02-15T20:44:23.533Z,25.48
2023-02-15T20:46:54.130Z,27.98
2023-02-15T20:49:27.242Z,27.23
2023-02-15T20:51:58.403Z,25.17
2023-02-15T20:54:40.001Z,27.00
2023-02-15T20:57:14.379Z,29.67
2023-02-15T20:59:46.708Z,22.73
2023-02-15T21:02:34.476Z,28.80
2023-02-15T21:05:06.617Z,28.80
2023-02-15T21:07:40.510Z,29.75
2023-02-15T21:10:15.230Z,23.65
2023-02-15T21:12:49.030Z,32.80
2023-02-15T21:15:27.577Z,25.23
2023-02-15T21:18:21.697Z,32.30
2023-02-15T21:20:57.660Z,28.80
2023-02-15T21:23:45.511Z,32.70
2023-02-15T21:26:33.171Z,29.85
2023-02-15T21:29:03.980Z,24.60
2023-02-15T21:31:51.823Z,28.60
2023-02-15T21:34:39.902Z,28.00
2023-02-15T21:37:29.279Z,30.55
2023-02-15T21:40:15.473Z,33.45
2023-02-15T21:43:17.877Z,28.65
2023-02-15T21:46:12.688Z,26.50
2023-02-15T21:49:03.201Z,27.27
2023-02-15T21:51:54.625Z,31.95
2023-02-15T21:54:25.743Z,25.80
2023-02-15T21:57:14.385Z,31.70
2023-02-15T21:59:53.692Z,31.92
2023-02-15T22:02:36.040Z,26.90
2023-02-15T22:05:28.504Z,31.00
2023-02-15T22:08:13.995Z,28.88
2023-02-15T22:10:43.562Z,31.52
2023-02-15T22:13:15.126Z,31.67
2023-02-15T22:15:47.470Z,33.70
2023-02-15T22:18:21.566Z,29.75
2023-02-15T22:20:55.997Z,31.08
2023-02-15T22:23:27.315Z,29.98
2023-02-15T22:26:00.497Z,33.50
2023-02-15T22:28:36.792Z,33.17
2023-02-15T22:31:24.554Z,33.17
2023-02-15T22:34:23.857Z,28.40
2023-02-15T22:37:06.004Z,32.55
2023-02-15T22:39:57.840Z,27.13
2023-02-15T22:42:29.802Z,33.67
2023-02-15T22:45:01.165Z,32.80
2023-02-15T22:47:41.017Z,31.92
2023-02-15T22:50:19.467Z,33.28
2023-02-15T22:52:57.110Z,31.65
2023-02-15T22:55:40.298Z,38.58
2023-02-15T22:58:22.453Z,36.47
2023-02-15T23:01:19.196Z,29.75
2023-02-15T23:04:12.699Z,38.67
2023-02-15T23:06:41.237Z,32.72
2023-02-15T23:09:09.689Z,38.90
2023-02-15T23:11:43.046Z,39.10
2023-02-15T23:14:18.516Z,35.70
2023-02-15T23:17:06.090Z,35.03
2023-02-15T23:19:49.718Z,32.00
2023-02-15T23:22:25.905Z,31.55
2023-02-15T23:24:56.931Z,38.05
2023-02-15T23:27:59.928Z,36.53
2023-02-15T23:30:28.858Z,42.67
2023-02-15T23:33:12.876Z,35.33
2023-02-15T23:35:42.084Z,37.88
2023-02-15T23:38:19.392Z,34.63
2023-02-15T23:41:09.961Z,37.70
2023-02-15T23:43:40.329Z,38.00
2023-02-15T23:46:39.744Z,33.58
2023-02-15T23:49:17.397Z,36.25
2023-02-15T23:52:03.028Z,35.78
2023-02-15T23:54:39.717Z,37.00
2023-02-15T23:57:16.651Z,37.22
